Allendale, Wyoming
Current Conditions -  °F | °C
As of 10:53 AM on Wednesday 28 Jan 2015 (Local Time) from KCPR Reporting Station
Moderate Rain Moderate Rain  
Wind Chill: -1°   Ceiling: 2100
Heat Index:   Visibility: 3mi
Dew Point:   Wind: 12mph
Humidity: 93%   Direction: 300°WNW
Pressure: 30.14"   Gusts: NA
Location:  42.84°N, 106.275°W
Report Text: KCPR 281753Z AUTO 30010KT 3SM RA BR OVC021 03/02 A3014 RMK AO2 SLP209 P0004 60006 T00280017 10039 20022 52022
Loading
Personal Weather Stations






























Interactive Weather Map New forecast layout! Learn more

10-Day Weather Forecast

Advertisements
Track Severe Weather on mobile